KLEW/LEW METAR and TAF weather

Enter ICAO airport designator
Station Type Date Time Source
KLEW METAR 2020/10/20 16:13 UTC NOAA

KLEW 201613Z AUTO 20010KT 10SM -RA OVC011 13/12 A3024 RMK AO2 RAB05 P0000


Station Type Date Time Source
KLEW Decoded METAR 2020/10/20 16:13 UTC NOAA

Auburn-Lewiston, ME, United States (KLEW) 44-03N 070-17W
Oct 20, 2020 - 12:13 PM EDT / 2020.10.20 1613 UTC
Wind: from the SSW (200 degrees) at 12 MPH (10 KT):0
Visibility: 10 mile(s):0
Sky conditions: overcast
Weather: light rain
Precipitation last hour: A trace
Temperature: 55 F (13 C)
Dew Point: 53 F (12 C)
Relative Humidity: 93%
Pressure (altimeter): 30.24 in. Hg (1024 hPa)
ob: KLEW 201613Z AUTO 20010KT 10SM -RA OVC011 13/12 A3024 RMK AO2 RAB05 P0000
cycle: 16

Station Type Date Time Source
KLEW TAF UTC NOAA

Error!

Example: see airport list